aviador You're here:

MMTP Decoded Metar

TAPACHULA in MEXICO
Report Time2017-09-24 05:41:00
UTC Time2017-09-24 06:58:00
Flight Rules Old
WindCalm
Visibility9999 m
Phenomena:N/A
Clouds:Scattered 100 Hf
Overcast 150 Hf
Expected CloudBase > 800 ft AGL from Temp-Dew spread
Ceiling15,000 ft
Temp24°C (ISA +9)
Dew Point22°C (89% RH)
QNH1009 hPa
Density Alt1,644 ft
Elevation95 ft
Report Wrong Elevation
Raw Report
METAR MMTP 240541Z 00000KT 10SM SCT100 OVC150 24/22 A2981 RMK SLP120
52004 953 8/07/=

Extra information for MMTP:More info

Metar Taf Metar & Taf Last 4 Metars F.Rules Stats Wind Profile Meteogram Temp Stats Airport Information Weather charts Add Link Nearby VenuesMetar ALERT Operation Metar Decoded Social comments